Time;durP1;ratioP1;P1;durP2;ratioP2;P2;SDS_P1;SDS_P2;PMS_P1;PMS_P2;Temp;Humidity;BMP_temperature;BMP_pressure;BME280_temperature;BME280_humidity;BME280_pressure;Samples;Min_cycle;Max_cycle;Signal;HPM_P1;HPM_P2
2021/10/16 00:01:37;;;;;;;14.38;6.40;;;;;;;;;;4990428;28;20088;-84
2021/10/16 00:04:03;;;;;;;10.48;6.15;;;;;;;;;;5005076;28;20072;-84
2021/10/16 00:06:28;;;;;;;11.45;6.80;;;;;;;;;;4988853;28;20454;-84
2021/10/16 00:08:53;;;;;;;11.55;7.22;;;;;;;;;;4989182;28;20033;-83
2021/10/16 00:11:19;;;;;;;11.63;6.47;;;;;;;;;;5005003;28;20057;-84
2021/10/16 00:13:47;;;;;;;11.23;6.70;;;;;;;;;;5005463;28;20113;-84
2021/10/16 00:16:12;;;;;;;10.82;5.72;;;;;;;;;;4988643;28;20036;-83
2021/10/16 00:18:38;;;;;;;13.13;6.20;;;;;;;;;;4987985;28;20040;-84
2021/10/16 00:21:04;;;;;;;11.77;7.13;;;;;;;;;;5004242;28;20300;-84
2021/10/16 00:23:30;;;;;;;12.93;6.80;;;;;;;;;;4990986;28;20034;-82
2021/10/16 00:25:56;;;;;;;11.05;5.80;;;;;;;;;;4992275;28;20033;-83
2021/10/16 00:28:22;;;;;;;8.80;5.57;;;;;;;;;;5010036;28;20076;-84
2021/10/16 00:30:47;;;;;;;10.52;6.20;;;;;;;;;;4992546;28;20033;-84
2021/10/16 00:33:14;;;;;;;12.85;6.45;;;;;;;;;;5020245;28;20034;-83
2021/10/16 00:35:42;;;;;;;10.77;6.45;;;;;;;;;;5029416;28;20030;-83
2021/10/16 00:38:09;;;;;;;11.70;7.03;;;;;;;;;;5014611;28;20112;-82
2021/10/16 00:40:34;;;;;;;14.88;7.20;;;;;;;;;;4992259;28;20092;-82
2021/10/16 00:43:00;;;;;;;13.50;7.18;;;;;;;;;;5011207;28;20030;-82
2021/10/16 00:45:30;;;;;;;13.15;7.18;;;;;;;;;;5010836;28;20388;-82
2021/10/16 00:47:56;;;;;;;12.25;7.43;;;;;;;;;;4994501;28;20034;-83
2021/10/16 00:50:23;;;;;;;15.90;8.30;;;;;;;;;;5010553;28;20029;-82
2021/10/16 00:52:49;;;;;;;15.15;7.30;;;;;;;;;;5010787;28;20038;-82
2021/10/16 00:55:16;;;;;;;14.10;7.07;;;;;;;;;;4994570;28;20029;-82
2021/10/16 00:57:43;;;;;;;12.00;6.75;;;;;;;;;;4993752;28;20033;-82
2021/10/16 01:00:10;;;;;;;9.55;6.78;;;;;;;;;;5007628;28;20458;-82
2021/10/16 01:02:35;;;;;;;11.70;6.75;;;;;;;;;;4989923;28;20046;-81
2021/10/16 01:05:03;;;;;;;11.52;6.65;;;;;;;;;;4994335;28;20414;-83
2021/10/16 01:07:29;;;;;;;11.73;6.60;;;;;;;;;;4993531;28;20037;-83
2021/10/16 01:09:55;;;;;;;15.32;7.25;;;;;;;;;;4994006;28;20073;-83
2021/10/16 01:12:21;;;;;;;9.52;5.75;;;;;;;;;;4993393;28;20022;-83
2021/10/16 01:14:56;;;;;;;11.15;6.40;;;;;;;;;;5010208;28;20802;-83
2021/10/16 01:17:22;;;;;;;10.57;6.60;;;;;;;;;;5011586;28;20100;-83
2021/10/16 01:19:53;;;;;;;11.23;6.40;;;;;;;;;;4990281;28;20053;-81
2021/10/16 01:22:22;;;;;;;11.30;6.20;;;;;;;;;;5011613;28;20143;-83
2021/10/16 01:24:51;;;;;;;11.38;7.03;;;;;;;;;;5012129;28;20371;-83
2021/10/16 01:27:20;;;;;;;12.50;6.78;;;;;;;;;;5010811;28;20022;-84
2021/10/16 01:29:49;;;;;;;15.65;7.47;;;;;;;;;;5011226;28;20076;-83
2021/10/16 01:32:15;;;;;;;13.40;7.28;;;;;;;;;;5011620;28;20110;-83
2021/10/16 01:34:41;;;;;;;14.90;7.10;;;;;;;;;;4995210;28;20026;-83
2021/10/16 01:37:07;;;;;;;14.75;7.45;;;;;;;;;;5013169;28;20025;-83
2021/10/16 01:39:33;;;;;;;12.38;7.22;;;;;;;;;;5010693;28;20673;-83
2021/10/16 01:41:58;;;;;;;13.90;7.78;;;;;;;;;;5010621;28;20025;-84
2021/10/16 01:44:24;;;;;;;13.18;7.68;;;;;;;;;;4988056;28;20044;-83
2021/10/16 01:46:50;;;;;;;14.82;8.10;;;;;;;;;;4991602;28;20030;-81
2021/10/16 01:49:17;;;;;;;13.25;7.55;;;;;;;;;;4992494;28;20503;-81
2021/10/16 01:51:44;;;;;;;15.70;7.57;;;;;;;;;;4994571;28;20022;-82
2021/10/16 01:54:10;;;;;;;12.43;7.43;;;;;;;;;;4992185;28;20128;-81
2021/10/16 01:56:36;;;;;;;16.33;7.13;;;;;;;;;;4987813;28;20113;-81
2021/10/16 01:59:19;;;;;;;12.77;7.18;;;;;;;;;;5005082;28;20048;-82
2021/10/16 02:01:45;;;;;;;13.95;7.82;;;;;;;;;;4991306;28;20037;-82
2021/10/16 02:04:11;;;;;;;15.60;8.00;;;;;;;;;;5009907;28;23386;-82
2021/10/16 02:06:37;;;;;;;12.50;7.10;;;;;;;;;;4992900;28;20038;-82
2021/10/16 02:09:04;;;;;;;15.95;7.28;;;;;;;;;;4990235;28;20028;-82
2021/10/16 02:11:29;;;;;;;14.88;7.80;;;;;;;;;;4991381;28;20034;-83
2021/10/16 02:13:55;;;;;;;15.43;7.05;;;;;;;;;;4992423;28;20088;-82
2021/10/16 02:16:20;;;;;;;12.85;7.00;;;;;;;;;;5010499;28;20025;-82
2021/10/16 02:18:46;;;;;;;15.40;6.70;;;;;;;;;;5010279;28;20032;-83
2021/10/16 02:21:11;;;;;;;11.45;6.65;;;;;;;;;;4989153;28;20581;-82
2021/10/16 02:23:37;;;;;;;14.73;7.22;;;;;;;;;;5005648;28;20125;-82
2021/10/16 02:26:02;;;;;;;13.27;7.55;;;;;;;;;;5009072;28;20029;-83
2021/10/16 02:28:28;;;;;;;13.50;7.45;;;;;;;;;;5008808;28;20038;-83
2021/10/16 02:30:53;;;;;;;13.85;7.35;;;;;;;;;;5010563;28;20489;-82
2021/10/16 02:33:21;;;;;;;13.98;7.78;;;;;;;;;;4992931;28;20041;-82
2021/10/16 02:35:46;;;;;;;14.75;7.25;;;;;;;;;;5011315;28;20029;-82
2021/10/16 02:38:12;;;;;;;12.27;7.10;;;;;;;;;;5016586;28;20010;-82
2021/10/16 02:40:37;;;;;;;11.50;7.15;;;;;;;;;;5009368;28;20057;-82
2021/10/16 02:43:04;;;;;;;11.70;7.32;;;;;;;;;;5005794;28;20022;-82
2021/10/16 02:45:30;;;;;;;11.65;6.95;;;;;;;;;;4991021;28;20025;-82
2021/10/16 02:47:55;;;;;;;13.77;7.32;;;;;;;;;;5012470;28;20025;-82
2021/10/16 02:50:21;;;;;;;13.50;7.38;;;;;;;;;;4993120;28;20030;-82
2021/10/16 02:52:46;;;;;;;14.63;8.23;;;;;;;;;;5010823;28;20025;-83
2021/10/16 02:55:11;;;;;;;15.23;7.80;;;;;;;;;;4989789;28;20049;-83
2021/10/16 02:57:37;;;;;;;13.23;8.07;;;;;;;;;;5009685;28;20108;-82
2021/10/16 03:00:04;;;;;;;12.95;7.70;;;;;;;;;;5009379;28;20104;-83
2021/10/16 03:02:30;;;;;;;12.68;7.40;;;;;;;;;;4992016;28;20033;-83
2021/10/16 03:04:56;;;;;;;13.88;8.55;;;;;;;;;;5010599;28;20030;-82
2021/10/16 03:07:21;;;;;;;13.35;7.13;;;;;;;;;;5008450;28;20106;-82
2021/10/16 03:09:47;;;;;;;14.65;7.47;;;;;;;;;;4992985;28;20474;-83
2021/10/16 03:12:15;;;;;;;14.27;7.60;;;;;;;;;;5009013;28;20033;-83
2021/10/16 03:14:40;;;;;;;13.23;6.95;;;;;;;;;;4991572;28;20029;-82
2021/10/16 03:17:06;;;;;;;18.75;7.80;;;;;;;;;;5008778;28;20029;-83
2021/10/16 03:19:32;;;;;;;15.27;7.70;;;;;;;;;;5008945;28;20013;-82
2021/10/16 03:21:57;;;;;;;14.50;8.18;;;;;;;;;;5006249;28;20038;-82
2021/10/16 03:24:23;;;;;;;13.43;7.95;;;;;;;;;;5010517;28;20042;-82
2021/10/16 03:26:49;;;;;;;13.52;7.70;;;;;;;;;;5007878;28;20041;-83
2021/10/16 03:29:14;;;;;;;15.30;7.90;;;;;;;;;;5008142;28;20029;-82
2021/10/16 03:31:42;;;;;;;13.80;7.50;;;;;;;;;;4991075;28;20426;-81
2021/10/16 03:34:08;;;;;;;13.20;7.55;;;;;;;;;;5009143;28;20091;-82
2021/10/16 03:36:33;;;;;;;12.02;7.10;;;;;;;;;;5010988;28;20037;-83
2021/10/16 03:38:58;;;;;;;14.55;7.53;;;;;;;;;;5011150;28;20393;-83
2021/10/16 03:41:24;;;;;;;13.43;7.45;;;;;;;;;;5009844;28;20069;-83
2021/10/16 03:43:49;;;;;;;13.43;7.20;;;;;;;;;;5008366;28;20030;-83
2021/10/16 03:46:20;;;;;;;14.95;7.65;;;;;;;;;;4989770;28;20060;-82
2021/10/16 03:48:45;;;;;;;14.50;7.50;;;;;;;;;;5008098;28;20026;-83
2021/10/16 03:51:10;;;;;;;13.50;7.80;;;;;;;;;;5010493;28;20036;-83
2021/10/16 03:53:36;;;;;;;13.55;7.60;;;;;;;;;;4996563;28;20022;-83
2021/10/16 03:56:04;;;;;;;14.85;8.45;;;;;;;;;;4993760;28;20048;-83
2021/10/16 03:58:30;;;;;;;15.13;8.30;;;;;;;;;;5012124;28;20030;-83
2021/10/16 04:01:00;;;;;;;14.07;8.75;;;;;;;;;;5012373;28;20028;-82
2021/10/16 04:03:26;;;;;;;14.05;7.65;;;;;;;;;;5011902;28;20105;-83
2021/10/16 04:05:52;;;;;;;16.20;7.30;;;;;;;;;;4995134;28;20457;-83
2021/10/16 04:08:17;;;;;;;14.45;7.65;;;;;;;;;;5012523;28;20028;-82
2021/10/16 04:10:45;;;;;;;15.57;7.88;;;;;;;;;;5014467;28;20030;-83
2021/10/16 04:13:11;;;;;;;17.90;7.50;;;;;;;;;;5013893;28;20037;-82
2021/10/16 04:15:37;;;;;;;14.52;7.50;;;;;;;;;;5012268;28;20077;-83
2021/10/16 04:18:05;;;;;;;14.75;8.23;;;;;;;;;;5014829;28;20034;-83
2021/10/16 04:20:32;;;;;;;15.07;7.55;;;;;;;;;;4995719;28;20113;-83
2021/10/16 04:22:58;;;;;;;13.20;7.68;;;;;;;;;;5027306;28;20033;-82
2021/10/16 04:25:24;;;;;;;13.57;7.68;;;;;;;;;;5027165;28;20069;-83
2021/10/16 04:27:49;;;;;;;17.52;8.15;;;;;;;;;;5012763;28;20038;-82
2021/10/16 04:30:15;;;;;;;16.77;8.45;;;;;;;;;;5007719;28;20076;-82
2021/10/16 04:32:41;;;;;;;16.73;8.73;;;;;;;;;;4990893;28;20022;-82
2021/10/16 04:35:08;;;;;;;15.85;8.38;;;;;;;;;;4989304;28;20401;-82
2021/10/16 04:37:34;;;;;;;16.92;8.10;;;;;;;;;;4990763;28;20026;-81
2021/10/16 04:40:09;;;;;;;15.98;8.00;;;;;;;;;;4991247;28;20049;-83
2021/10/16 04:42:35;;;;;;;16.52;8.90;;;;;;;;;;4991522;28;20042;-82
2021/10/16 04:45:00;;;;;;;16.17;9.60;;;;;;;;;;5008538;28;20478;-82
2021/10/16 04:47:26;;;;;;;17.45;9.65;;;;;;;;;;4988774;28;20053;-83
2021/10/16 04:49:52;;;;;;;17.80;9.40;;;;;;;;;;4990394;28;20068;-83
2021/10/16 04:52:17;;;;;;;16.52;9.30;;;;;;;;;;5007491;28;20450;-82
2021/10/16 04:54:43;;;;;;;16.55;9.20;;;;;;;;;;5008209;28;20115;-83
2021/10/16 04:57:08;;;;;;;18.33;9.48;;;;;;;;;;5007274;28;20120;-83
2021/10/16 04:59:34;;;;;;;15.48;9.10;;;;;;;;;;5005787;28;20499;-82
2021/10/16 05:01:59;;;;;;;17.20;9.35;;;;;;;;;;5007230;28;20030;-82
2021/10/16 05:04:25;;;;;;;17.20;9.95;;;;;;;;;;4991133;28;20034;-83
2021/10/16 05:06:50;;;;;;;21.20;10.52;;;;;;;;;;5008729;28;20040;-83
2021/10/16 05:09:16;;;;;;;18.02;9.55;;;;;;;;;;5009699;28;20037;-80
2021/10/16 05:11:41;;;;;;;17.73;9.45;;;;;;;;;;4991008;28;20065;-79
2021/10/16 05:14:07;;;;;;;17.67;9.77;;;;;;;;;;4995103;28;20406;-79
2021/10/16 05:16:33;;;;;;;18.02;9.32;;;;;;;;;;4992470;28;21123;-79
2021/10/16 05:18:58;;;;;;;19.25;10.80;;;;;;;;;;5012834;28;20083;-79
2021/10/16 05:21:24;;;;;;;19.50;11.27;;;;;;;;;;4995961;28;20032;-79
2021/10/16 05:23:49;;;;;;;16.73;10.13;;;;;;;;;;5001056;28;20104;-81
2021/10/16 05:26:15;;;;;;;19.67;10.00;;;;;;;;;;5017214;28;20113;-80
2021/10/16 05:28:40;;;;;;;17.88;9.35;;;;;;;;;;5001893;28;20033;-79
2021/10/16 05:31:05;;;;;;;18.92;10.05;;;;;;;;;;5001510;28;20481;-81
2021/10/16 05:33:33;;;;;;;16.75;10.15;;;;;;;;;;4996933;28;20052;-81
2021/10/16 05:35:59;;;;;;;18.73;9.85;;;;;;;;;;5009195;28;20639;-79
2021/10/16 05:38:25;;;;;;;15.10;8.77;;;;;;;;;;5016516;28;20029;-78
2021/10/16 05:40:51;;;;;;;18.55;10.25;;;;;;;;;;5021393;28;20449;-78
2021/10/16 05:43:16;;;;;;;18.80;9.38;;;;;;;;;;5016290;28;20021;-78
2021/10/16 05:45:42;;;;;;;23.48;12.27;;;;;;;;;;5002025;28;20393;-80
2021/10/16 05:48:07;;;;;;;21.45;11.65;;;;;;;;;;5015581;28;20396;-78
2021/10/16 05:50:33;;;;;;;18.35;10.05;;;;;;;;;;5014805;28;20646;-80
2021/10/16 05:52:58;;;;;;;18.55;10.55;;;;;;;;;;5018371;28;20040;-81
2021/10/16 05:55:23;;;;;;;16.63;9.88;;;;;;;;;;5001619;28;20018;-79
2021/10/16 05:57:49;;;;;;;20.05;10.57;;;;;;;;;;5029331;28;20033;-79
2021/10/16 06:00:15;;;;;;;19.23;10.45;;;;;;;;;;5010131;28;20030;-81
2021/10/16 06:02:40;;;;;;;24.98;12.60;;;;;;;;;;5016241;28;20057;-81
2021/10/16 06:05:06;;;;;;;24.38;12.90;;;;;;;;;;5014820;28;20038;-79
2021/10/16 06:07:31;;;;;;;21.95;12.35;;;;;;;;;;4995032;28;20018;-81
2021/10/16 06:09:58;;;;;;;25.45;13.25;;;;;;;;;;4996911;28;20037;-81
2021/10/16 06:12:23;;;;;;;27.38;13.35;;;;;;;;;;5015972;28;20140;-81
2021/10/16 06:14:49;;;;;;;29.05;16.90;;;;;;;;;;5009333;28;20575;-81
2021/10/16 06:17:14;;;;;;;32.88;17.98;;;;;;;;;;5014360;28;20034;-80
2021/10/16 06:19:41;;;;;;;33.80;17.05;;;;;;;;;;5013754;28;20102;-79
2021/10/16 06:22:08;;;;;;;22.92;11.88;;;;;;;;;;5010766;28;20830;-80
2021/10/16 06:24:34;;;;;;;20.55;10.70;;;;;;;;;;4991810;28;20465;-80
2021/10/16 06:26:59;;;;;;;20.83;11.20;;;;;;;;;;5010796;28;20030;-82
2021/10/16 06:29:24;;;;;;;20.40;12.07;;;;;;;;;;5010157;28;20124;-80
2021/10/16 06:31:50;;;;;;;22.35;10.93;;;;;;;;;;4993695;28;20108;-78
2021/10/16 06:34:15;;;;;;;22.27;12.23;;;;;;;;;;4988516;28;20026;-81
2021/10/16 06:36:41;;;;;;;21.42;12.38;;;;;;;;;;4990844;28;20029;-78
2021/10/16 06:39:08;;;;;;;22.50;10.88;;;;;;;;;;4994213;28;20080;-78
2021/10/16 06:41:34;;;;;;;16.08;9.85;;;;;;;;;;5008942;28;20093;-80
2021/10/16 06:43:59;;;;;;;22.63;10.50;;;;;;;;;;4993449;28;20113;-80
2021/10/16 06:46:25;;;;;;;21.50;11.18;;;;;;;;;;5011113;28;20422;-80
2021/10/16 06:48:50;;;;;;;29.55;12.77;;;;;;;;;;5010265;28;20385;-80
2021/10/16 06:51:16;;;;;;;25.92;12.13;;;;;;;;;;5009930;28;20210;-79
2021/10/16 06:53:41;;;;;;;15.55;8.60;;;;;;;;;;4992802;28;20083;-78
2021/10/16 06:56:07;;;;;;;18.05;10.00;;;;;;;;;;4992299;28;20021;-80
2021/10/16 06:58:32;;;;;;;21.52;10.13;;;;;;;;;;5010751;28;20021;-79
2021/10/16 07:00:57;;;;;;;23.42;11.15;;;;;;;;;;5007833;28;20381;-79
2021/10/16 07:03:23;;;;;;;21.08;11.55;;;;;;;;;;5009660;28;20028;-79
2021/10/16 07:05:49;;;;;;;24.55;12.88;;;;;;;;;;5005176;28;20030;-79
2021/10/16 07:08:14;;;;;;;23.80;12.80;;;;;;;;;;5009590;28;20037;-80
2021/10/16 07:10:41;;;;;;;28.95;15.18;;;;;;;;;;5005004;28;20042;-79
2021/10/16 07:13:08;;;;;;;31.60;16.92;;;;;;;;;;5010482;28;20085;-80
2021/10/16 07:15:34;;;;;;;31.33;18.63;;;;;;;;;;5006606;28;20032;-79
2021/10/16 07:17:59;;;;;;;33.20;18.70;;;;;;;;;;5008649;28;20030;-78
2021/10/16 07:20:25;;;;;;;30.42;17.02;;;;;;;;;;5012087;28;20030;-77
2021/10/16 07:22:50;;;;;;;24.85;15.40;;;;;;;;;;5010382;28;20124;-80
2021/10/16 07:25:16;;;;;;;25.27;15.00;;;;;;;;;;5007541;28;20030;-78
2021/10/16 07:27:41;;;;;;;25.45;14.43;;;;;;;;;;4991783;28;20044;-80
2021/10/16 07:30:08;;;;;;;29.40;14.07;;;;;;;;;;5010265;28;20069;-80
2021/10/16 07:32:36;;;;;;;21.02;12.82;;;;;;;;;;4993066;28;20029;-79
2021/10/16 07:35:01;;;;;;;20.00;12.40;;;;;;;;;;4991944;28;20129;-80
2021/10/16 07:37:26;;;;;;;22.42;11.77;;;;;;;;;;4995903;28;20105;-79
2021/10/16 07:39:52;;;;;;;20.35;12.05;;;;;;;;;;5009123;28;20025;-79
2021/10/16 07:42:17;;;;;;;21.05;11.90;;;;;;;;;;5011002;28;20029;-78
2021/10/16 07:44:43;;;;;;;25.23;13.40;;;;;;;;;;4992002;28;20029;-79
2021/10/16 07:47:09;;;;;;;24.92;13.90;;;;;;;;;;5009638;28;20025;-80
2021/10/16 07:49:36;;;;;;;24.27;14.73;;;;;;;;;;5009594;28;20029;-79
2021/10/16 07:52:02;;;;;;;26.27;14.65;;;;;;;;;;4994468;28;20029;-80
2021/10/16 07:54:27;;;;;;;23.05;12.35;;;;;;;;;;5009966;28;20021;-79
2021/10/16 07:56:53;;;;;;;25.27;13.18;;;;;;;;;;5009548;28;20084;-81
2021/10/16 07:59:18;;;;;;;23.65;12.07;;;;;;;;;;4992325;28;20029;-81
2021/10/16 08:01:44;;;;;;;23.30;12.95;;;;;;;;;;4992296;28;20026;-81
2021/10/16 08:04:09;;;;;;;19.63;11.68;;;;;;;;;;4990410;28;20033;-80
2021/10/16 08:06:35;;;;;;;22.83;11.50;;;;;;;;;;5027877;28;20083;-80
2021/10/16 08:09:03;;;;;;;21.65;12.48;;;;;;;;;;5008023;28;20045;-81
2021/10/16 08:11:28;;;;;;;23.00;12.35;;;;;;;;;;4994030;28;20469;-79
2021/10/16 08:13:53;;;;;;;18.63;11.07;;;;;;;;;;5006437;28;20080;-78
2021/10/16 08:16:19;;;;;;;24.70;12.20;;;;;;;;;;4990503;28;20030;-80
2021/10/16 08:18:44;;;;;;;23.65;11.80;;;;;;;;;;4993638;28;20083;-79
2021/10/16 08:21:10;;;;;;;20.17;12.00;;;;;;;;;;5002783;28;20026;-80
2021/10/16 08:23:38;;;;;;;20.52;12.02;;;;;;;;;;5006680;28;20021;-80
2021/10/16 08:26:04;;;;;;;24.33;13.82;;;;;;;;;;5008735;28;20120;-80
2021/10/16 08:28:34;;;;;;;24.63;13.88;;;;;;;;;;5007728;28;20237;-78
2021/10/16 08:31:05;;;;;;;31.05;16.20;;;;;;;;;;5011380;28;20026;-78
2021/10/16 08:33:33;;;;;;;32.63;17.30;;;;;;;;;;4990098;28;20042;-79
2021/10/16 08:36:00;;;;;;;28.25;15.48;;;;;;;;;;5007840;28;20095;-82
2021/10/16 08:38:26;;;;;;;25.85;13.95;;;;;;;;;;5006706;28;20517;-77
2021/10/16 08:40:51;;;;;;;27.83;15.32;;;;;;;;;;5010554;28;20036;-80
2021/10/16 08:43:18;;;;;;;30.45;15.80;;;;;;;;;;4991659;28;20469;-78
2021/10/16 08:45:45;;;;;;;36.45;17.08;;;;;;;;;;5001689;28;20199;-79
2021/10/16 08:48:12;;;;;;;39.53;19.38;;;;;;;;;;5007285;28;20040;-79
2021/10/16 08:50:38;;;;;;;62.30;27.13;;;;;;;;;;4992005;28;20022;-79
2021/10/16 08:53:04;;;;;;;49.90;22.27;;;;;;;;;;5009693;28;20022;-79
2021/10/16 08:55:29;;;;;;;35.33;17.55;;;;;;;;;;5010246;28;20389;-80
2021/10/16 08:57:56;;;;;;;27.88;14.32;;;;;;;;;;5011652;28;20068;-79
2021/10/16 09:00:49;;;;;;;26.67;14.77;;;;;;;;;;5009445;28;20506;-80
2021/10/16 09:03:40;;;;;;;31.92;15.80;;;;;;;;;;4993750;28;20033;-80
2021/10/16 09:06:24;;;;;;;28.25;14.57;;;;;;;;;;5012380;28;20065;-80
2021/10/16 09:09:09;;;;;;;28.63;15.95;;;;;;;;;;5013500;28;20412;-80
2021/10/16 09:11:44;;;;;;;37.55;18.77;;;;;;;;;;5011436;28;20022;-80
2021/10/16 09:14:39;;;;;;;42.67;20.80;;;;;;;;;;5012443;28;20470;-79
2021/10/16 09:17:06;;;;;;;39.55;19.70;;;;;;;;;;4973108;28;20042;-78
2021/10/16 09:19:34;;;;;;;43.90;22.17;;;;;;;;;;4989051;28;20029;-78
2021/10/16 09:22:04;;;;;;;44.03;21.42;;;;;;;;;;5008896;28;20048;-78
2021/10/16 09:24:31;;;;;;;39.35;19.13;;;;;;;;;;5009989;28;20044;-77
2021/10/16 09:27:00;;;;;;;41.05;19.58;;;;;;;;;;5010724;28;20389;-78
2021/10/16 09:29:40;;;;;;;34.53;18.05;;;;;;;;;;5009804;28;20378;-79
2021/10/16 09:32:15;;;;;;;33.58;17.77;;;;;;;;;;5008573;28;20125;-78
2021/10/16 09:34:44;;;;;;;35.90;17.60;;;;;;;;;;5009222;28;20026;-78
2021/10/16 09:37:17;;;;;;;;;;;;;;;;;;4992470;28;20116;-78
2021/10/16 09:39:52;;;;;;;32.72;17.20;;;;;;;;;;5009136;28;20373;-80
2021/10/16 09:42:40;;;;;;;31.17;17.27;;;;;;;;;;5006260;28;20870;-78
2021/10/16 09:45:11;;;;;;;37.20;18.33;;;;;;;;;;5007292;28;20029;-79
2021/10/16 09:47:39;;;;;;;35.53;18.27;;;;;;;;;;5004943;28;20116;-78
2021/10/16 09:50:09;;;;;;;36.40;18.70;;;;;;;;;;4990925;28;20026;-78
2021/10/16 09:52:42;;;;;;;32.03;17.83;;;;;;;;;;4992370;28;20037;-80
2021/10/16 09:55:10;;;;;;;33.20;17.17;;;;;;;;;;5008417;28;20030;-78
2021/10/16 09:57:37;;;;;;;33.63;17.77;;;;;;;;;;5009419;28;20029;-79
2021/10/16 10:00:05;;;;;;;30.85;17.63;;;;;;;;;;5008357;28;20466;-79
2021/10/16 10:02:32;;;;;;;32.78;16.42;;;;;;;;;;5006217;28;20036;-79
2021/10/16 10:04:58;;;;;;;30.02;17.08;;;;;;;;;;5009068;28;20033;-80
2021/10/16 10:07:28;;;;;;;37.72;17.90;;;;;;;;;;5006184;28;20171;-78
2021/10/16 10:09:57;;;;;;;27.38;16.25;;;;;;;;;;4992404;28;20041;-79
2021/10/16 10:12:24;;;;;;;35.83;19.10;;;;;;;;;;5010353;28;20033;-78
2021/10/16 10:14:50;;;;;;;30.73;16.48;;;;;;;;;;5007517;28;20022;-79
2021/10/16 10:17:24;;;;;;;26.05;15.25;;;;;;;;;;5006900;28;20709;-78
2021/10/16 10:19:57;;;;;;;24.75;14.30;;;;;;;;;;5004662;28;20515;-79
2021/10/16 10:22:23;;;;;;;22.70;13.85;;;;;;;;;;4991316;28;20032;-79
2021/10/16 10:24:51;;;;;;;27.77;15.15;;;;;;;;;;4991993;28;20524;-78
2021/10/16 10:27:20;;;;;;;23.85;14.23;;;;;;;;;;5008412;28;20401;-77
2021/10/16 10:29:50;;;;;;;26.05;15.05;;;;;;;;;;4991121;28;20120;-78
2021/10/16 10:32:27;;;;;;;26.42;15.07;;;;;;;;;;5005609;28;20180;-79
2021/10/16 10:35:09;;;;;;;23.38;13.43;;;;;;;;;;4991251;28;20116;-78
2021/10/16 10:37:44;;;;;;;28.13;14.45;;;;;;;;;;5009800;28;20026;-78
2021/10/16 10:40:15;;;;;;;24.23;14.60;;;;;;;;;;5010732;28;20216;-79
2021/10/16 10:42:59;;;;;;;26.60;15.57;;;;;;;;;;5008919;28;20342;-78
2021/10/16 10:45:26;;;;;;;26.63;15.38;;;;;;;;;;5008366;28;20026;-80
2021/10/16 10:48:13;;;;;;;25.58;14.60;;;;;;;;;;5003973;28;20518;-80
2021/10/16 10:50:54;;;;;;;28.13;16.35;;;;;;;;;;5007074;28;20030;-77
2021/10/16 10:53:47;;;;;;;30.15;17.58;;;;;;;;;;5013713;28;20056;-84
2021/10/16 10:56:20;;;;;;;27.33;15.80;;;;;;;;;;5006404;28;20044;-79
2021/10/16 10:58:57;;;;;;;27.02;15.45;;;;;;;;;;4990340;28;20030;-78
2021/10/16 11:01:49;;;;;;;25.52;15.82;;;;;;;;;;5005162;28;20314;-79
2021/10/16 11:04:34;;;;;;;24.63;14.63;;;;;;;;;;5007825;28;20233;-79
2021/10/16 11:07:05;;;;;;;22.30;14.40;;;;;;;;;;5005510;28;20029;-79
2021/10/16 11:09:31;;;;;;;23.38;14.73;;;;;;;;;;4990777;28;20053;-80
2021/10/16 11:11:56;;;;;;;24.88;14.85;;;;;;;;;;5008253;28;20030;-80
2021/10/16 11:14:33;;;;;;;27.08;15.05;;;;;;;;;;5009609;28;20041;-80
2021/10/16 11:17:04;;;;;;;34.63;17.73;;;;;;;;;;4993527;28;20034;-79
2021/10/16 11:19:45;;;;;;;29.58;18.20;;;;;;;;;;5009400;28;20025;-80
2021/10/16 11:22:10;;;;;;;30.75;16.73;;;;;;;;;;5011022;28;20054;-78
2021/10/16 11:24:36;;;;;;;30.92;16.80;;;;;;;;;;5012562;28;20045;-80
2021/10/16 11:27:02;;;;;;;30.25;16.20;;;;;;;;;;5008534;28;20036;-81
2021/10/16 11:29:28;;;;;;;27.60;15.98;;;;;;;;;;5009076;28;20485;-80
2021/10/16 11:32:21;;;;;;;26.60;15.85;;;;;;;;;;5009593;28;20034;-81
2021/10/16 11:35:13;;;;;;;25.77;14.05;;;;;;;;;;4991591;28;20033;-80
2021/10/16 11:37:49;;;;;;;31.58;17.52;;;;;;;;;;5014278;28;20053;-79
2021/10/16 11:40:20;;;;;;;27.90;16.35;;;;;;;;;;5000915;28;20117;-78
2021/10/16 11:43:03;;;;;;;27.17;15.63;;;;;;;;;;5008904;28;20032;-79
2021/10/16 11:45:35;;;;;;;26.80;16.50;;;;;;;;;;5008694;28;20021;-80
2021/10/16 11:48:04;;;;;;;30.58;16.63;;;;;;;;;;5009236;28;20032;-79
2021/10/16 11:50:36;;;;;;;23.48;14.55;;;;;;;;;;5008462;28;20042;-80
2021/10/16 11:53:29;;;;;;;28.50;16.85;;;;;;;;;;5009517;28;20133;-81
2021/10/16 11:55:57;;;;;;;29.02;17.42;;;;;;;;;;4989219;28;20069;-78
2021/10/16 11:58:25;;;;;;;27.50;15.50;;;;;;;;;;4988805;28;20568;-79
2021/10/16 12:00:53;;;;;;;26.27;16.80;;;;;;;;;;5005133;28;20053;-80
2021/10/16 12:03:28;;;;;;;29.42;17.88;;;;;;;;;;5005442;28;20035;-79
2021/10/16 12:05:55;;;;;;;27.92;16.30;;;;;;;;;;4992025;28;20473;-80
2021/10/16 12:08:30;;;;;;;26.95;17.23;;;;;;;;;;5007517;28;20037;-80
2021/10/16 12:10:56;;;;;;;30.42;17.50;;;;;;;;;;5006127;28;20038;-80
2021/10/16 12:13:33;;;;;;;27.23;15.82;;;;;;;;;;5006400;28;20061;-79
2021/10/16 12:16:09;;;;;;;28.95;16.30;;;;;;;;;;5005035;28;20025;-80
2021/10/16 12:18:35;;;;;;;30.88;19.02;;;;;;;;;;5004954;28;20453;-80
2021/10/16 12:21:03;;;;;;;26.00;16.25;;;;;;;;;;4987211;28;20064;-80
2021/10/16 12:23:47;;;;;;;25.98;17.15;;;;;;;;;;5003977;28;20038;-79
2021/10/16 12:26:21;;;;;;;24.67;16.63;;;;;;;;;;5006427;28;20125;-79
2021/10/16 12:28:47;;;;;;;25.00;15.25;;;;;;;;;;4990526;28;20125;-80
2021/10/16 12:31:13;;;;;;;24.00;15.10;;;;;;;;;;5009420;28;20121;-80
2021/10/16 12:33:54;;;;;;;21.48;14.05;;;;;;;;;;5011920;28;20045;-78
2021/10/16 12:36:32;;;;;;;22.05;14.10;;;;;;;;;;5011003;28;20539;-79
2021/10/16 12:39:01;;;;;;;24.60;16.88;;;;;;;;;;5010821;28;20026;-81
2021/10/16 12:41:34;;;;;;;22.13;14.73;;;;;;;;;;5010969;28;20030;-81
2021/10/16 12:44:34;;;;;;;25.55;15.65;;;;;;;;;;5011245;28;20390;-80
2021/10/16 12:47:11;;;;;;;25.02;14.73;;;;;;;;;;5015537;28;20033;-80
2021/10/16 12:49:46;;;;;;;26.25;15.60;;;;;;;;;;5013692;28;20029;-80
2021/10/16 12:52:31;;;;;;;24.92;15.68;;;;;;;;;;5009951;28;20029;-80
2021/10/16 12:55:11;;;;;;;22.58;15.48;;;;;;;;;;5013510;28;20052;-82
2021/10/16 12:57:56;;;;;;;23.05;15.82;;;;;;;;;;5012588;28;20040;-80
2021/10/16 13:00:25;;;;;;;27.45;16.45;;;;;;;;;;4993535;28;20049;-80
2021/10/16 13:02:51;;;;;;;33.35;20.20;;;;;;;;;;5010980;28;20026;-80
2021/10/16 13:05:20;;;;;;;28.98;17.48;;;;;;;;;;5012159;28;20029;-82
2021/10/16 13:07:46;;;;;;;;;;;;;;;;;;5013143;28;20034;-80
2021/10/16 13:10:12;;;;;;;41.78;23.80;;;;;;;;;;5011523;28;19943;-80
2021/10/16 13:12:44;;;;;;;33.05;19.75;;;;;;;;;;5013641;28;20388;-80
2021/10/16 13:15:11;;;;;;;25.63;15.48;;;;;;;;;;5014385;28;20022;-79
2021/10/16 13:17:36;;;;;;;20.50;12.63;;;;;;;;;;5010304;28;20030;-80
2021/10/16 13:20:03;;;;;;;23.52;13.43;;;;;;;;;;4992701;28;20184;-79
2021/10/16 13:22:29;;;;;;;25.27;15.05;;;;;;;;;;5012154;28;20037;-79
2021/10/16 13:24:55;;;;;;;22.85;13.65;;;;;;;;;;5014940;28;20022;-80
2021/10/16 13:27:23;;;;;;;24.92;15.63;;;;;;;;;;4993740;28;20029;-79
2021/10/16 13:29:48;;;;;;;28.48;18.63;;;;;;;;;;5010360;28;20037;-79
2021/10/16 13:32:16;;;;;;;30.10;17.42;;;;;;;;;;4993776;28;20030;-79
2021/10/16 13:34:43;;;;;;;37.08;20.63;;;;;;;;;;5010734;28;20026;-79
2021/10/16 13:37:09;;;;;;;39.13;20.23;;;;;;;;;;5012448;28;20049;-79
2021/10/16 13:39:34;;;;;;;27.15;15.75;;;;;;;;;;4993167;28;20022;-79
2021/10/16 13:42:00;;;;;;;25.17;16.50;;;;;;;;;;5007702;28;20025;-79
2021/10/16 13:44:26;;;;;;;23.75;13.73;;;;;;;;;;5010573;28;20033;-81
2021/10/16 13:46:54;;;;;;;21.70;13.50;;;;;;;;;;4992017;28;20453;-80
2021/10/16 13:49:19;;;;;;;24.25;14.32;;;;;;;;;;5009015;28;20226;-80
2021/10/16 13:51:45;;;;;;;21.50;13.52;;;;;;;;;;4994593;28;20519;-79
2021/10/16 13:54:10;;;;;;;20.90;13.32;;;;;;;;;;5008614;28;20022;-79
2021/10/16 13:56:39;;;;;;;22.75;13.55;;;;;;;;;;5012129;28;20076;-79
2021/10/16 13:59:06;;;;;;;22.55;13.90;;;;;;;;;;5009223;28;20026;-78
2021/10/16 14:01:31;;;;;;;20.30;13.63;;;;;;;;;;4992211;28;20404;-79
2021/10/16 14:03:57;;;;;;;19.90;13.85;;;;;;;;;;5007760;28;20026;-79
2021/10/16 14:06:23;;;;;;;19.52;12.38;;;;;;;;;;5009542;28;20025;-79
2021/10/16 14:08:48;;;;;;;21.92;13.52;;;;;;;;;;4991926;28;20406;-80
2021/10/16 14:11:14;;;;;;;18.52;11.32;;;;;;;;;;5008356;28;20481;-80
2021/10/16 14:13:40;;;;;;;19.65;12.32;;;;;;;;;;5015573;28;20462;-80
2021/10/16 14:16:09;;;;;;;19.52;10.73;;;;;;;;;;5009473;28;20438;-80
2021/10/16 14:18:35;;;;;;;17.15;11.57;;;;;;;;;;4990210;28;20353;-80
2021/10/16 14:21:00;;;;;;;18.98;11.68;;;;;;;;;;5011572;28;20070;-79
2021/10/16 14:23:26;;;;;;;20.25;12.35;;;;;;;;;;5008850;28;20038;-79
2021/10/16 14:25:53;;;;;;;20.23;12.20;;;;;;;;;;4991101;28;20030;-80
2021/10/16 14:28:19;;;;;;;17.92;11.55;;;;;;;;;;4992901;28;20512;-79
2021/10/16 14:30:45;;;;;;;21.30;12.00;;;;;;;;;;4994098;28;20034;-79